Time;durP1;ratioP1;P1;durP2;ratioP2;P2;SDS_P1;SDS_P2;PMS_P1;PMS_P2;Temp;Humidity;BMP_temperature;BMP_pressure;BME280_temperature;BME280_humidity;BME280_pressure;Samples;Min_cycle;Max_cycle;Signal;HPM_P1;HPM_P2
2023/04/01 00:09:26;;;;;;;18.02;13.57;;;10.50;99.90;;;;;;5770124;23;20412;31
2023/04/01 00:14:43;;;;;;;16.23;12.70;;;10.50;99.90;;;;;;5526313;23;20851;-94
2023/04/01 01:26:38;;;;;;;17.92;13.45;;;10.50;99.90;;;;;;1437893;23;20713;-93
2023/04/01 01:29:22;;;;;;;20.10;13.70;;;10.50;99.90;;;;;;4952609;28;20425;-93
2023/04/01 01:32:03;;;;;;;20.15;14.57;;;10.50;99.90;;;;;;4955938;28;20422;-92
2023/04/01 01:34:53;;;;;;;16.23;12.95;;;10.50;99.90;;;;;;4955305;28;20442;-92
2023/04/01 01:37:23;;;;;;;18.05;13.50;;;10.50;99.90;;;;;;4954552;28;20454;-93
2023/04/01 01:39:54;;;;;;;18.92;13.98;;;10.70;99.90;;;;;;4955981;28;20422;-95
2023/04/01 01:42:22;;;;;;;18.67;13.68;;;10.90;99.90;;;;;;4954476;28;20414;-93
2023/04/01 01:44:50;;;;;;;18.23;14.20;;;10.60;99.90;;;;;;4956072;28;20426;-94
2023/04/01 01:47:18;;;;;;;17.97;13.67;;;10.50;99.90;;;;;;4955547;28;20812;-94
2023/04/01 01:49:45;;;;;;;19.95;14.30;;;10.60;99.90;;;;;;4954602;28;20411;-93
2023/04/01 01:52:13;;;;;;;19.13;14.55;;;10.60;99.90;;;;;;4955080;28;20411;-92
2023/04/01 01:54:53;;;;;;;19.33;14.15;;;10.90;99.90;;;;;;4954438;28;20529;-93
2023/04/01 01:57:26;;;;;;;19.17;14.15;;;10.50;99.90;;;;;;4955814;28;20422;-92
2023/04/01 01:59:58;;;;;;;18.98;14.32;;;10.50;99.90;;;;;;4953839;28;20489;-94
2023/04/01 02:02:27;;;;;;;18.73;13.97;;;11.10;99.90;;;;;;4955273;28;20900;-95
2023/04/01 02:04:53;;;;;;;21.30;14.67;;;10.70;99.90;;;;;;4954793;28;20406;-94
2023/04/01 02:07:31;;;;;;;17.60;13.90;;;10.70;99.90;;;;;;4953986;28;20985;-92
2023/04/01 02:09:56;;;;;;;18.15;13.45;;;10.60;99.90;;;;;;4955062;28;20754;-91
2023/04/01 02:12:24;;;;;;;19.42;13.95;;;10.80;99.90;;;;;;4953762;28;20410;-93
2023/04/01 02:14:55;;;;;;;18.92;13.40;;;11.00;99.90;;;;;;4954375;28;20896;-93
2023/04/01 02:17:27;;;;;;;17.92;13.25;;;10.80;99.90;;;;;;4953918;28;20425;-94
2023/04/01 02:20:16;;;;;;;16.95;13.05;;;10.50;99.90;;;;;;4954562;28;20399;-94
2023/04/01 02:22:47;;;;;;;19.77;13.13;;;10.60;99.90;;;;;;4955251;28;20686;-93
2023/04/01 02:25:27;;;;;;;19.52;13.27;;;10.60;99.90;;;;;;4953478;28;20793;-93
2023/04/01 02:27:54;;;;;;;18.33;13.90;;;10.50;99.90;;;;;;4955212;28;20928;-92
2023/04/01 02:30:21;;;;;;;19.20;13.52;;;10.40;99.90;;;;;;4953498;28;20485;-94
2023/04/01 02:32:48;;;;;;;21.03;14.03;;;10.60;99.90;;;;;;4954771;28;20477;-92
2023/04/01 02:35:16;;;;;;;18.08;13.75;;;11.00;99.90;;;;;;4954492;28;20439;-92
2023/04/01 02:37:43;;;;;;;19.17;13.85;;;10.60;99.90;;;;;;4953776;28;20402;-94
2023/04/01 03:43:40;;;;;;;24.83;16.48;;;10.40;99.90;;;;;;5919148;23;20489;-95
2023/04/01 04:31:40;;;;;;;30.10;18.80;;;10.50;99.90;;;;;;6001972;23;21130;-96
2023/04/01 05:34:37;;;;;;;39.97;23.53;;;10.50;99.90;;;;;;5089515;23;20491;-94
2023/04/01 05:37:18;;;;;;;41.97;24.35;;;10.50;99.90;;;;;;4996688;28;20421;-94
2023/04/01 05:54:28;;;;;;;36.08;22.52;;;10.60;99.90;;;;;;5005572;28;20454;-94
2023/04/01 05:57:17;;;;;;;38.30;22.65;;;10.40;99.90;;;;;;4989168;28;20411;-94
2023/04/01 05:59:43;;;;;;;37.70;22.90;;;10.60;99.90;;;;;;4971305;28;20425;-93
2023/04/01 06:02:23;;;;;;;36.20;23.23;;;10.60;99.90;;;;;;4969598;28;20410;-95
2023/04/01 06:05:35;;;;;;;36.20;22.60;;;10.60;99.90;;;;;;4969594;28;20402;-95
2023/04/01 06:08:27;;;;;;;36.72;23.00;;;10.60;99.90;;;;;;4912163;28;20412;-93
2023/04/01 06:11:44;;;;;;;32.88;22.00;;;10.80;99.90;;;;;;4966760;28;20414;-95
2023/04/01 06:14:35;;;;;;;34.63;22.30;;;10.50;99.90;;;;;;4964216;28;20494;-93
2023/04/01 06:17:30;;;;;;;37.25;22.88;;;10.60;99.90;;;;;;4961926;28;20418;-94
2023/04/01 06:20:14;;;;;;;37.80;22.95;;;10.60;99.90;;;;;;4959646;28;20418;-95
2023/04/01 06:23:27;;;;;;;32.83;21.55;;;10.70;99.90;;;;;;4966512;28;20833;-93
2023/04/01 06:26:53;;;;;;;35.37;22.20;;;10.70;99.90;;;;;;4965249;28;20427;-94
2023/04/01 06:29:44;;;;;;;34.90;22.30;;;10.70;99.90;;;;;;4964179;28;20507;-93
2023/04/01 06:33:09;;;;;;;33.03;21.75;;;10.70;99.90;;;;;;4967420;28;20425;-95
2023/04/01 06:36:17;;;;;;;30.17;20.75;;;10.70;99.90;;;;;;4822285;29;20547;-95
2023/04/01 06:39:11;;;;;;;30.58;21.90;;;10.70;99.90;;;;;;4894255;29;20421;-95
2023/04/01 06:42:08;;;;;;;34.72;23.42;;;10.70;99.90;;;;;;4939957;28;20415;-95
2023/04/01 06:53:58;;;;;;;33.63;20.85;;;10.70;99.90;;;;;;5216148;23;20498;-94
2023/04/01 07:00:04;;;;;;;31.83;20.60;;;10.90;99.90;;;;;;4910533;29;20418;-95
2023/04/01 07:06:44;;;;;;;46.50;25.58;;;11.00;99.90;;;;;;4943500;28;20431;-95
2023/04/01 07:10:13;;;;;;;43.08;23.50;;;10.70;99.90;;;;;;4868372;29;20442;-95
2023/04/01 07:12:51;;;;;;;40.27;24.07;;;10.80;99.90;;;;;;4871672;29;20427;-95
2023/04/01 07:15:40;;;;;;;41.25;24.88;;;10.80;99.90;;;;;;4864152;29;20451;-94
2023/04/01 07:19:14;;;;;;;39.25;25.20;;;10.90;99.90;;;;;;4866573;29;20480;-95
2023/04/01 07:22:25;;;;;;;39.22;23.75;;;10.90;99.90;;;;;;4864919;29;20830;-94
2023/04/01 07:27:43;;;;;;;35.35;23.38;;;11.10;99.90;;;;;;5070274;23;20439;-94
2023/04/01 07:30:21;;;;;;;32.85;22.23;;;11.20;99.90;;;;;;4971234;28;20413;-94
2023/04/01 07:36:37;;;;;;;25.77;19.37;;;11.40;99.90;;;;;;4978622;28;20751;-94
2023/04/01 07:39:12;;;;;;;24.00;19.60;;;11.50;99.90;;;;;;4969381;28;20414;-94
2023/04/01 07:42:04;;;;;;;24.10;20.23;;;11.80;99.90;;;;;;4964425;28;20446;-93
2023/04/01 07:45:21;;;;;;;;;;;;;;;;;;;;;
2023/04/01 07:48:21;;;;;;;21.75;19.45;;;12.00;99.90;;;;;;4978320;28;20545;-93
2023/04/01 07:51:41;;;;;;;21.83;19.42;;;11.90;99.90;;;;;;4959651;28;20421;-94
2023/04/01 07:55:03;;;;;;;23.48;20.83;;;12.00;99.90;;;;;;4938280;28;20445;-93
2023/04/01 07:58:30;;;;;;;23.73;20.73;;;12.00;99.90;;;;;;4865794;29;20461;-95
2023/04/01 08:01:32;;;;;;;;;;;;;;;;;;;;;
2023/04/01 08:04:30;;;;;;;24.13;21.60;;;12.00;99.90;;;;;;5092061;23;20511;-95
2023/04/01 08:07:17;;;;;;;23.40;20.92;;;11.80;99.90;;;;;;4937351;28;20416;-93
2023/04/01 08:10:02;;;;;;;26.77;22.63;;;12.00;99.90;;;;;;4936351;28;20426;-93
2023/04/01 08:13:09;;;;;;;28.25;23.45;;;12.40;99.90;;;;;;4938794;28;20463;-94
2023/04/01 08:23:12;;;;;;;25.50;21.15;;;11.70;99.90;;;;;;4853702;29;20438;-96
2023/04/01 08:26:00;;;;;;;24.63;19.83;;;11.90;99.90;;;;;;4846833;29;20489;-95
2023/04/01 08:29:07;;;;;;;24.65;18.95;;;12.00;99.90;;;;;;4954450;23;20438;-94
2023/04/01 08:32:14;;;;;;;23.38;18.60;;;11.90;99.90;;;;;;4927519;29;20719;-94
2023/04/01 08:34:53;;;;;;;23.10;18.15;;;12.00;99.90;;;;;;4913851;29;20435;-94
2023/04/01 08:37:45;;;;;;;21.02;16.70;;;12.20;99.90;;;;;;4908946;29;20423;-95
2023/04/01 08:41:13;;;;;;;18.20;15.25;;;12.30;99.90;;;;;;4920689;28;20424;-95
2023/04/01 08:44:36;;;;;;;15.43;13.70;;;12.20;99.90;;;;;;4929255;28;20427;-94
2023/04/01 08:48:00;;;;;;;;;;;;;;;;;;;;;
2023/04/01 08:51:13;;;;;;;14.90;12.43;;;12.40;99.90;;;;;;4962273;28;20441;-94
2023/04/01 09:21:00;;;;;;;8.95;8.05;;;12.30;99.90;;;;;;4970410;28;20494;-95
2023/04/01 09:32:23;;;;;;;10.23;9.30;;;12.30;99.90;;;;;;5264046;23;20435;-96
2023/04/01 09:44:20;;;;;;;10.40;9.40;;;12.40;99.90;;;;;;4960359;28;20448;-95
2023/04/01 09:47:24;;;;;;;10.85;9.95;;;12.40;99.90;;;;;;4938465;29;20929;-95
2023/04/01 09:50:10;;;;;;;10.75;9.85;;;12.50;99.90;;;;;;4936401;29;20453;-94
2023/04/01 09:52:57;;;;;;;11.07;10.17;;;12.50;99.90;;;;;;4937659;28;20928;-95
2023/04/01 09:55:41;;;;;;;10.82;9.93;;;12.50;99.90;;;;;;4921944;29;20796;-94
2023/04/01 09:58:27;;;;;;;10.18;9.38;;;12.50;99.90;;;;;;4942331;29;20428;-96
2023/04/01 10:01:40;;;;;;;10.00;9.20;;;12.60;99.90;;;;;;4927115;28;20865;-95
2023/04/01 10:04:37;;;;;;;9.10;8.32;;;12.30;99.90;;;;;;4850781;29;20520;-95
2023/04/01 10:07:44;;;;;;;8.05;7.25;;;12.30;99.90;;;;;;4939506;29;20426;-94
2023/04/01 10:10:42;;;;;;;6.63;6.03;;;12.30;99.90;;;;;;4941669;29;20485;-95
2023/04/01 10:13:29;;;;;;;7.50;6.80;;;12.40;99.90;;;;;;4940434;29;20422;-93
2023/04/01 10:16:33;;;;;;;6.40;5.85;;;12.40;99.90;;;;;;4937459;29;20437;-94
2023/04/01 10:19:19;;;;;;;5.07;4.22;;;12.50;99.90;;;;;;4896230;28;21421;-93
2023/04/01 10:22:09;;;;;;;5.67;4.40;;;12.70;99.90;;;;;;4882926;28;20457;-93
2023/04/01 10:25:15;;;;;;;4.40;4.00;;;12.60;99.90;;;;;;4922615;29;20480;-93
2023/04/01 10:28:09;;;;;;;4.35;3.85;;;12.60;99.90;;;;;;4936499;29;20781;-94
2023/04/01 10:31:12;;;;;;;5.22;4.28;;;12.60;99.90;;;;;;4932851;29;20501;-93
2023/04/01 10:33:58;;;;;;;4.80;4.10;;;12.50;99.90;;;;;;4854848;28;20436;-93
2023/04/01 10:36:52;;;;;;;5.35;3.90;;;12.40;99.90;;;;;;4936256;28;20500;-94
2023/04/01 10:39:53;;;;;;;5.57;3.65;;;12.30;99.90;;;;;;4917327;29;20422;-91
2023/04/01 10:43:04;;;;;;;5.30;3.67;;;12.20;99.90;;;;;;4942095;29;20433;-93
2023/04/01 10:46:08;;;;;;;4.72;4.10;;;12.10;99.90;;;;;;4920649;29;20418;-92
2023/04/01 10:49:08;;;;;;;4.80;3.85;;;11.90;99.90;;;;;;4931841;29;20462;-93
2023/04/01 10:51:53;;;;;;;5.40;4.10;;;12.10;99.90;;;;;;4941444;29;20421;-95
2023/04/01 10:54:48;;;;;;;5.63;4.28;;;13.00;99.90;;;;;;4960551;28;20758;-96
2023/04/01 11:00:44;;;;;;;4.78;3.95;;;12.10;99.90;;;;;;5173589;23;20426;-95
2023/04/01 11:03:44;;;;;;;5.40;3.30;;;12.10;99.90;;;;;;4857688;29;20665;-96
2023/04/01 11:07:01;;;;;;;4.55;3.45;;;12.10;99.90;;;;;;4821677;29;20469;-96
2023/04/01 11:10:07;;;;;;;3.78;3.00;;;11.90;99.90;;;;;;4792181;29;20404;-95
2023/04/01 11:13:03;;;;;;;3.58;2.00;;;12.00;99.90;;;;;;4798249;29;20468;-94
2023/04/01 11:15:59;;;;;;;3.13;2.20;;;12.00;99.90;;;;;;4845296;29;20478;-95
2023/04/01 11:19:08;;;;;;;;;;;;;;;;;;;;;
2023/04/01 11:25:43;;;;;;;3.38;1.92;;;12.20;99.90;;;;;;5183651;23;20442;-95
2023/04/01 11:28:55;;;;;;;2.50;1.10;;;12.10;99.90;;;;;;4964386;28;20450;-95
2023/04/01 11:31:46;;;;;;;;;;;;;;;;;;;;;
2023/04/01 11:34:47;;;;;;;2.10;1.25;;;12.00;99.90;;;;;;4993147;28;20466;-95
2023/04/01 11:37:34;;;;;;;2.63;1.40;;;12.20;99.90;;;;;;4970552;28;20418;-94
2023/04/01 11:40:25;;;;;;;3.40;0.95;;;12.30;99.90;;;;;;4969690;28;20410;-95
2023/04/01 11:43:31;;;;;;;2.25;1.13;;;12.20;99.90;;;;;;4969428;28;20425;-96
2023/04/01 11:49:54;;;;;;;2.85;1.20;;;12.20;99.90;;;;;;4894052;29;20438;-94
2023/04/01 11:53:01;;;;;;;2.30;1.10;;;12.20;99.90;;;;;;4967661;28;20418;-95
2023/04/01 12:03:18;;;;;;;3.30;1.58;;;12.10;99.90;;;;;;4870108;29;20429;-95
2023/04/01 12:06:13;;;;;;;2.53;1.40;;;12.20;99.90;;;;;;4929163;29;20520;-95
2023/04/01 12:12:43;;;;;;;3.00;1.95;;;12.20;99.90;;;;;;4941612;28;20454;-95
2023/04/01 12:15:53;;;;;;;2.60;1.60;;;12.10;99.90;;;;;;4971070;28;20517;-93
2023/04/01 12:19:08;;;;;;;2.70;1.60;;;11.90;99.90;;;;;;4960810;28;20474;-95
2023/04/01 12:22:13;;;;;;;3.00;1.60;;;11.80;99.90;;;;;;4969983;28;20426;-94
2023/04/01 12:25:37;;;;;;;3.33;1.45;;;11.80;99.90;;;;;;4874826;29;20583;-94
2023/04/01 12:28:35;;;;;;;2.40;1.15;;;11.90;99.90;;;;;;4874401;29;20463;-94
2023/04/01 12:31:39;;;;;;;2.10;1.27;;;12.00;99.90;;;;;;4874600;29;20450;-94
2023/04/01 12:34:48;;;;;;;2.25;1.20;;;12.40;99.90;;;;;;4861381;29;20423;-94
2023/04/01 12:37:59;;;;;;;2.07;1.10;;;11.90;99.90;;;;;;4874335;29;20442;-95
2023/04/01 12:41:17;;;;;;;2.10;0.80;;;12.10;99.90;;;;;;4894206;29;20531;-95
2023/04/01 12:44:35;;;;;;;2.35;0.90;;;12.10;99.90;;;;;;4969767;28;20422;-95
2023/04/01 12:47:41;;;;;;;1.65;0.90;;;12.40;99.90;;;;;;4853770;29;20637;-95
2023/04/01 12:50:53;;;;;;;2.25;1.10;;;12.20;99.90;;;;;;4877926;29;20496;-95
2023/04/01 12:54:21;;;;;;;;;;;;;;;;;;;;;
2023/04/01 12:57:54;;;;;;;2.33;1.20;;;12.20;99.90;;;;;;4891162;29;20407;-93
2023/04/01 13:00:50;;;;;;;2.33;0.80;;;12.30;99.90;;;;;;4873193;29;20430;-94
2023/04/01 13:04:02;;;;;;;1.80;1.10;;;12.20;99.90;;;;;;4888922;29;20551;-95
2023/04/01 13:07:08;;;;;;;2.15;0.88;;;12.30;99.90;;;;;;4870284;29;20428;-94
2023/04/01 13:09:51;;;;;;;2.05;0.70;;;12.40;99.90;;;;;;4872547;29;20405;-94
2023/04/01 13:12:41;;;;;;;1.92;0.80;;;13.00;99.90;;;;;;4872117;29;20426;-95
2023/04/01 13:15:25;;;;;;;2.45;0.90;;;12.30;99.90;;;;;;4871020;29;20448;-94
2023/04/01 13:18:21;;;;;;;2.33;1.00;;;12.50;99.90;;;;;;4910131;29;20514;-94
2023/04/01 13:21:30;;;;;;;1.63;0.93;;;12.00;99.90;;;;;;4911839;29;20460;-95
2023/04/01 13:24:43;;;;;;;2.35;0.88;;;12.10;99.90;;;;;;4897666;29;20430;-95
2023/04/01 13:31:19;;;;;;;1.60;1.10;;;12.10;99.90;;;;;;4898961;29;20432;-95
2023/04/01 13:38:15;;;;;;;;;;;;;;;;;;;;;
2023/04/01 13:41:35;;;;;;;3.60;1.05;;;11.70;99.90;;;;;;5005093;28;20405;-96
2023/04/01 13:44:48;;;;;;;1.83;0.93;;;11.70;99.90;;;;;;4970308;28;20425;-96
2023/04/01 13:47:48;;;;;;;;;;;;;;;;;;;;;
2023/04/01 13:54:51;;;;;;;1.95;1.00;;;11.40;99.90;;;;;;4858519;29;20536;-95
2023/04/01 13:58:08;;;;;;;3.15;0.80;;;11.90;99.90;;;;;;4827484;29;20446;-95
2023/04/01 14:01:11;;;;;;;2.55;0.80;;;11.40;99.90;;;;;;4841444;29;20443;-95
2023/04/01 14:04:26;;;;;;;2.72;1.00;;;11.70;99.90;;;;;;4816486;29;20452;-94
2023/04/01 14:08:05;;;;;;;2.25;0.80;;;11.50;99.90;;;;;;4824380;29;20420;-95
2023/04/01 14:10:45;;;;;;;2.08;0.70;;;11.40;99.90;;;;;;4931742;29;20427;-96
2023/04/01 14:14:10;;;;;;;4.80;0.80;;;11.40;99.90;;;;;;4915355;29;20454;-95
2023/04/01 14:17:13;;;;;;;2.60;0.70;;;11.30;99.90;;;;;;4924975;29;20430;-94
2023/04/01 14:19:57;;;;;;;1.73;0.70;;;11.00;99.90;;;;;;4905043;29;20481;-95
2023/04/01 14:22:59;;;;;;;2.20;0.60;;;11.00;99.90;;;;;;4905135;29;20423;-96
2023/04/01 14:26:08;;;;;;;1.30;0.68;;;10.90;99.90;;;;;;4912171;29;20443;-95
2023/04/01 14:29:31;;;;;;;1.77;0.52;;;10.90;99.90;;;;;;4927412;29;20412;-96
2023/04/01 14:32:36;;;;;;;1.90;0.40;;;10.80;99.90;;;;;;4905480;29;20420;-96
2023/04/01 14:35:55;;;;;;;;;;;;;;;;;;;;;
2023/04/01 14:38:55;;;;;;;1.83;0.60;;;10.80;99.90;;;;;;4976926;28;21023;-95
2023/04/01 14:42:24;;;;;;;2.85;0.60;;;10.80;99.90;;;;;;4965817;28;20410;-96
2023/04/01 14:45:02;;;;;;;1.73;0.90;;;10.80;99.90;;;;;;4967459;28;20478;-94
2023/04/01 14:48:26;;;;;;;2.50;1.02;;;10.70;99.90;;;;;;4982045;28;20418;-95
2023/04/01 14:50:57;;;;;;;2.10;0.60;;;10.70;99.90;;;;;;4887569;29;20514;-96
2023/04/01 14:53:25;;;;;;;1.35;0.55;;;11.00;99.90;;;;;;4906162;28;20410;-92
2023/04/01 14:56:53;;;;;;;2.10;0.88;;;10.90;99.90;;;;;;4979241;28;20437;-94
2023/04/01 14:59:32;;;;;;;2.20;0.63;;;10.60;99.90;;;;;;4975453;28;20551;-94
2023/04/01 15:05:48;;;;;;;3.40;1.30;;;10.50;99.90;;;;;;4988241;28;20474;-96
2023/04/01 15:08:54;;;;;;;3.53;1.63;;;10.40;99.90;;;;;;4971136;28;20422;-95
2023/04/01 15:11:49;;;;;;;3.47;1.80;;;10.30;99.90;;;;;;4987696;28;20414;-95
2023/04/01 15:14:49;;;;;;;4.30;1.60;;;10.60;99.90;;;;;;4969754;28;20450;-96
2023/04/01 15:17:52;;;;;;;3.30;1.40;;;10.20;99.90;;;;;;4972257;28;20422;-94
2023/04/01 15:21:18;;;;;;;;;;;;;;;;;;;;;
2023/04/01 15:24:35;;;;;;;3.60;1.40;;;10.00;99.90;;;;;;5003545;28;20422;-94
2023/04/01 15:27:42;;;;;;;3.23;1.27;;;10.00;99.90;;;;;;4926222;28;20409;-95
2023/04/01 15:31:08;;;;;;;2.67;1.60;;;9.90;99.90;;;;;;4968988;28;20462;-95
2023/04/01 15:34:21;;;;;;;4.30;1.95;;;9.90;99.90;;;;;;4970737;28;20418;-95
2023/04/01 15:37:25;;;;;;;3.00;1.60;;;9.90;99.90;;;;;;4971402;28;20441;-94
2023/04/01 15:40:09;;;;;;;3.13;1.58;;;9.80;99.90;;;;;;4952290;28;20923;-93
2023/04/01 15:43:21;;;;;;;3.90;1.90;;;9.80;99.90;;;;;;4971642;28;20900;-96
2023/04/01 15:46:41;;;;;;;3.42;2.25;;;9.70;99.90;;;;;;4968608;28;20414;-94
2023/04/01 15:50:25;;;;;;;3.75;2.22;;;9.70;99.90;;;;;;4965356;28;20416;-95
2023/04/01 15:58:01;;;;;;;5.88;2.35;;;9.70;99.90;;;;;;4903146;29;20418;-93
2023/04/01 16:04:11;;;;;;;6.35;3.35;;;9.50;99.90;;;;;;4884947;29;20419;-94
2023/04/01 16:07:24;;;;;;;;;;;;;;;;;;;;;
2023/04/01 16:10:27;;;;;;;6.73;4.33;;;9.30;99.90;;;;;;4984275;28;20418;-95
2023/04/01 16:13:21;;;;;;;7.05;4.95;;;9.30;99.90;;;;;;4967393;28;20773;-96
2023/04/01 16:16:21;;;;;;;7.25;4.57;;;9.30;99.90;;;;;;4977436;28;21338;-94
2023/04/01 16:19:20;;;;;;;7.78;5.13;;;9.20;99.90;;;;;;4963360;28;20980;-96
2023/04/01 16:22:10;;;;;;;7.00;4.63;;;9.10;99.90;;;;;;4964378;28;20458;-95
2023/04/01 16:28:55;;;;;;;8.38;5.07;;;9.00;99.90;;;;;;4986550;28;20415;-93
2023/04/01 16:32:15;;;;;;;9.43;5.40;;;8.90;99.90;;;;;;4964249;28;20417;-95
2023/04/01 16:35:28;;;;;;;8.67;5.30;;;8.80;99.90;;;;;;4933563;28;20558;-93
2023/04/01 16:38:49;;;;;;;8.70;5.03;;;8.80;99.90;;;;;;4975376;28;20437;-94
2023/04/01 16:41:53;;;;;;;9.23;5.20;;;8.70;99.90;;;;;;4961629;28;20430;-94
2023/04/01 16:44:48;;;;;;;7.07;5.20;;;8.70;99.90;;;;;;4990337;28;21084;-95
2023/04/01 16:47:54;;;;;;;7.68;5.20;;;8.60;99.90;;;;;;4990393;28;20487;-94
2023/04/01 16:50:52;;;;;;;9.93;5.72;;;8.80;99.90;;;;;;4890238;29;20436;-94
2023/04/01 16:53:51;;;;;;;9.18;5.10;;;8.30;99.90;;;;;;4975200;28;20446;-94
2023/04/01 16:56:49;;;;;;;7.45;5.10;;;8.30;99.90;;;;;;4973657;28;20469;-94
2023/04/01 16:59:24;;;;;;;9.80;5.10;;;8.30;99.90;;;;;;4969372;28;20421;-95
2023/04/01 17:02:31;;;;;;;8.67;5.37;;;8.40;99.90;;;;;;4966487;28;20414;-95
2023/04/01 17:05:38;;;;;;;7.95;5.18;;;8.40;99.90;;;;;;4971513;28;20407;-95
2023/04/01 17:08:45;;;;;;;8.38;5.68;;;8.70;99.90;;;;;;4948270;28;20443;-95
2023/04/01 17:15:18;;;;;;;9.93;5.85;;;8.20;99.90;;;;;;4908279;29;20472;-94
2023/04/01 17:18:26;;;;;;;8.40;5.50;;;8.10;99.90;;;;;;4892785;29;20418;-95
2023/04/01 17:21:37;;;;;;;9.30;5.95;;;8.10;99.90;;;;;;4890226;29;20453;-94
2023/04/01 17:24:55;;;;;;;10.40;6.68;;;8.10;99.90;;;;;;4907571;29;20425;-94
2023/04/01 17:28:23;;;;;;;8.82;5.60;;;8.20;99.90;;;;;;4902736;29;20431;-94
2023/04/01 17:31:40;;;;;;;8.68;6.00;;;8.00;99.90;;;;;;4849602;29;20498;-95
2023/04/01 17:34:33;;;;;;;9.77;6.15;;;8.20;99.90;;;;;;4883014;29;20433;-95
2023/04/01 17:37:27;;;;;;;8.10;5.75;;;7.90;99.90;;;;;;4982940;28;20409;-95
2023/04/01 17:40:57;;;;;;;10.67;5.97;;;7.90;99.90;;;;;;4961183;28;20419;-94
2023/04/01 17:43:34;;;;;;;9.18;6.18;;;7.90;99.90;;;;;;4867717;29;20424;-95
2023/04/01 17:46:25;;;;;;;9.85;5.90;;;7.90;99.90;;;;;;4894587;28;20835;-94
2023/04/01 17:52:35;;;;;;;8.65;5.63;;;7.80;99.90;;;;;;4971834;28;20533;-94
2023/04/01 17:55:48;;;;;;;8.25;5.53;;;7.80;99.90;;;;;;4965267;28;20929;-94
2023/04/01 17:59:08;;;;;;;9.37;6.20;;;8.00;99.90;;;;;;4967341;28;20438;-94
2023/04/01 18:02:14;;;;;;;10.97;6.20;;;7.70;99.90;;;;;;4969260;28;20407;-94
2023/04/01 18:05:15;;;;;;;7.85;5.45;;;7.50;99.90;;;;;;4971923;28;20461;-95
2023/04/01 18:08:16;;;;;;;9.27;5.78;;;7.60;99.90;;;;;;4989438;28;20487;-94
2023/04/01 18:11:14;;;;;;;9.93;6.03;;;7.50;99.90;;;;;;4973289;28;20469;-95
2023/04/01 18:14:17;;;;;;;;;;;;;;;;;;;;;
2023/04/01 18:17:06;;;;;;;8.90;5.90;;;7.60;99.90;;;;;;4888299;29;20549;-95
2023/04/01 18:20:17;;;;;;;9.07;5.97;;;7.80;99.90;;;;;;4980672;28;20484;-95
2023/04/01 18:23:21;;;;;;;8.07;5.55;;;7.30;99.90;;;;;;4887775;29;20793;-96
2023/04/01 18:27:01;;;;;;;9.65;6.30;;;7.30;99.90;;;;;;4895416;28;20478;-95
2023/04/01 18:30:12;;;;;;;;;;;;;;;;;;;;;
2023/04/01 18:33:31;;;;;;;9.20;6.23;;;7.30;99.90;;;;;;4940671;28;20454;-94
2023/04/01 18:36:55;;;;;;;11.32;6.00;;;7.20;99.90;;;;;;4969539;28;20517;-96
2023/04/01 18:39:48;;;;;;;11.73;5.82;;;7.40;99.90;;;;;;4973354;28;20418;-94
2023/04/01 18:43:04;;;;;;;10.02;5.55;;;7.20;99.90;;;;;;4972002;28;20446;-94
2023/04/01 18:46:29;;;;;;;11.00;6.10;;;7.10;99.90;;;;;;4981215;28;20421;-93
2023/04/01 18:52:57;;;;;;;10.70;6.60;;;7.20;99.90;;;;;;4986945;28;20406;-94
2023/04/01 18:56:23;;;;;;;10.13;6.40;;;7.20;99.90;;;;;;4970749;28;20463;-95
2023/04/01 18:59:53;;;;;;;8.68;5.65;;;7.20;99.90;;;;;;4963379;28;20416;-95
2023/04/01 19:02:39;;;;;;;9.25;5.80;;;7.10;99.90;;;;;;4971744;28;20442;-95
2023/04/01 19:05:42;;;;;;;9.23;6.15;;;7.10;99.90;;;;;;4970752;28;20419;-96
2023/04/01 19:08:39;;;;;;;9.43;6.00;;;7.20;99.90;;;;;;4984380;28;20474;-95
2023/04/01 19:15:24;;;;;;;11.80;6.67;;;7.10;99.90;;;;;;5000747;28;20948;-94
2023/04/01 19:19:10;;;;;;;8.40;5.82;;;7.10;99.90;;;;;;4986419;28;20449;-95
2023/04/01 19:22:24;;;;;;;9.85;6.28;;;7.10;99.90;;;;;;4971418;28;20432;-94
2023/04/01 19:28:50;;;;;;;9.18;5.97;;;7.00;99.90;;;;;;4973760;28;20453;-95
2023/04/01 19:32:01;;;;;;;9.88;6.15;;;6.90;99.90;;;;;;4971148;28;20406;-95
2023/04/01 19:34:52;;;;;;;9.52;6.32;;;6.90;99.90;;;;;;4871426;29;20442;-96
2023/04/01 19:38:35;;;;;;;;;;;;;;;;;;;;;
2023/04/01 19:41:57;;;;;;;;;;;;;;;;;;;;;
2023/04/01 19:44:54;;;;;;;10.63;6.38;;;6.80;99.90;;;;;;4922488;28;20418;-95
2023/04/01 19:48:10;;;;;;;9.45;6.72;;;6.80;99.90;;;;;;4965200;28;20471;-95
2023/04/01 19:51:03;;;;;;;10.83;6.43;;;6.90;99.90;;;;;;4921995;28;20415;-94
2023/04/01 19:54:38;;;;;;;11.50;6.45;;;6.70;99.90;;;;;;4968140;28;20425;-94
2023/04/01 19:57:48;;;;;;;9.80;6.13;;;6.70;99.90;;;;;;4877259;29;20419;-94
2023/04/01 20:01:03;;;;;;;9.98;6.35;;;6.90;99.90;;;;;;4874474;29;20436;-94
2023/04/01 20:03:57;;;;;;;11.45;6.63;;;6.60;99.90;;;;;;4889168;29;20466;-94
2023/04/01 20:06:35;;;;;;;11.95;7.28;;;6.60;99.90;;;;;;4887680;29;20419;-95
2023/04/01 20:09:20;;;;;;;11.82;7.20;;;7.30;99.90;;;;;;4869084;29;20427;-94
2023/04/01 20:12:39;;;;;;;11.00;7.25;;;6.60;99.90;;;;;;4883169;28;20486;-94
2023/04/01 20:16:10;;;;;;;10.37;6.80;;;6.60;99.90;;;;;;4878104;29;20438;-95
2023/04/01 20:19:11;;;;;;;10.95;6.00;;;6.60;99.90;;;;;;4880506;29;20437;-95
2023/04/01 20:21:58;;;;;;;10.13;6.30;;;6.60;99.90;;;;;;4875735;29;20946;-94
2023/04/01 20:28:20;;;;;;;10.73;6.30;;;6.50;99.90;;;;;;4891268;29;20438;-94
2023/04/01 20:31:40;;;;;;;9.13;6.25;;;6.50;99.90;;;;;;4912997;29;20421;-94
2023/04/01 20:34:53;;;;;;;9.82;6.18;;;6.50;99.90;;;;;;4915015;29;20429;-95
2023/04/01 20:37:57;;;;;;;8.82;5.85;;;6.50;99.90;;;;;;4990225;28;20415;-94
2023/04/01 20:40:32;;;;;;;9.98;6.78;;;6.30;99.90;;;;;;4968410;28;20465;-94
2023/04/01 20:43:00;;;;;;;11.57;7.13;;;6.40;99.90;;;;;;4963109;28;20442;-95
2023/04/01 20:46:15;;;;;;;12.25;7.65;;;6.50;99.90;;;;;;4969901;28;20426;-95
2023/04/01 20:49:22;;;;;;;11.07;6.88;;;6.40;99.90;;;;;;4973308;28;20418;-96
2023/04/01 20:52:19;;;;;;;11.38;6.32;;;6.40;99.90;;;;;;4971183;28;20418;-95
2023/04/01 20:55:07;;;;;;;8.27;5.00;;;6.40;99.90;;;;;;4960609;28;20454;-95
2023/04/01 20:58:08;;;;;;;7.57;4.80;;;6.30;99.90;;;;;;4958872;28;20463;-94
2023/04/01 21:04:43;;;;;;;7.25;4.55;;;6.40;99.90;;;;;;4971042;28;20425;-94
2023/04/01 21:07:51;;;;;;;8.80;5.22;;;6.30;99.90;;;;;;4974454;28;20456;-96
2023/04/01 21:10:35;;;;;;;8.63;5.35;;;6.30;99.90;;;;;;4962241;28;20425;-95
2023/04/01 21:13:43;;;;;;;10.43;5.97;;;6.30;99.90;;;;;;4967335;28;20437;-94
2023/04/01 21:16:18;;;;;;;11.10;6.20;;;6.30;99.90;;;;;;4968300;28;20446;-95
2023/04/01 21:23:16;;;;;;;9.30;5.20;;;6.30;99.90;;;;;;4968715;28;20504;-94
2023/04/01 21:26:31;;;;;;;9.25;5.40;;;6.30;99.90;;;;;;5002992;28;20473;-95
2023/04/01 21:29:31;;;;;;;9.50;5.43;;;6.20;99.90;;;;;;4967926;28;20427;-94
2023/04/01 21:33:00;;;;;;;10.00;5.00;;;6.30;99.90;;;;;;4925746;29;20446;-96
2023/04/01 21:36:23;;;;;;;9.57;5.10;;;6.20;99.90;;;;;;4931430;29;20445;-95
2023/04/01 21:39:25;;;;;;;9.82;5.40;;;6.20;99.90;;;;;;4914477;29;20419;-94
2023/04/01 21:42:18;;;;;;;9.03;5.00;;;6.10;99.90;;;;;;4902907;29;20865;-94
2023/04/01 21:45:20;;;;;;;9.20;5.30;;;6.10;99.90;;;;;;4907110;29;20854;-94
2023/04/01 21:48:29;;;;;;;9.75;5.22;;;5.90;99.90;;;;;;4967307;28;20490;-94
2023/04/01 21:51:54;;;;;;;10.55;5.38;;;6.10;99.90;;;;;;4969443;28;20406;-96
2023/04/01 21:54:59;;;;;;;10.10;5.63;;;6.10;99.90;;;;;;4864653;29;20950;-93
2023/04/01 21:57:40;;;;;;;11.63;5.47;;;6.00;99.90;;;;;;4886095;29;20535;-95
2023/04/01 22:00:26;;;;;;;8.80;5.00;;;6.40;99.90;;;;;;4985543;28;20422;-95
2023/04/01 22:03:30;;;;;;;10.48;5.03;;;6.00;99.90;;;;;;4968958;28;20770;-96
2023/04/01 22:06:27;;;;;;;8.75;4.90;;;6.00;99.90;;;;;;4957566;28;20415;-96
2023/04/01 22:09:03;;;;;;;10.07;5.18;;;6.00;99.90;;;;;;4960832;28;20533;-95
2023/04/01 22:11:54;;;;;;;8.45;4.97;;;6.10;99.90;;;;;;4963223;28;20418;-94
2023/04/01 22:15:04;;;;;;;11.00;4.70;;;6.00;99.90;;;;;;4967891;28;20423;-94
2023/04/01 22:18:04;;;;;;;11.00;5.05;;;5.80;99.90;;;;;;4995137;28;20418;-93
2023/04/01 22:20:49;;;;;;;9.38;5.40;;;6.10;99.90;;;;;;4961086;28;20924;-93
2023/04/01 22:23:28;;;;;;;10.35;4.95;;;5.80;99.90;;;;;;4965446;28;20437;-95
2023/04/01 22:26:17;;;;;;;8.48;5.05;;;6.00;99.90;;;;;;4970844;28;20429;-93
2023/04/01 22:29:40;;;;;;;9.48;4.63;;;6.10;99.90;;;;;;4970600;28;20415;-93
2023/04/01 22:32:49;;;;;;;8.40;4.63;;;5.90;99.90;;;;;;4968737;28;20439;-93
2023/04/01 22:36:00;;;;;;;9.10;4.78;;;5.90;99.90;;;;;;4981066;28;20438;-93
2023/04/01 22:39:21;;;;;;;8.43;4.55;;;5.80;99.90;;;;;;4967202;28;20410;-95
2023/04/01 22:42:26;;;;;;;7.45;3.92;;;5.80;99.90;;;;;;4959187;28;20750;-94
2023/04/01 22:45:30;;;;;;;7.85;4.68;;;5.80;99.90;;;;;;4964580;28;20446;-96
2023/04/01 22:48:17;;;;;;;;;;;;;;;;;;;;;